createdAt,value
2023-04-20T00:02:47.859Z,7.30
2023-04-20T00:07:54.619Z,6.85
2023-04-20T00:12:58.828Z,6.93
2023-04-20T00:18:02.767Z,6.75
2023-04-20T00:23:08.909Z,7.45
2023-04-20T00:28:12.685Z,10.07
2023-04-20T00:33:18.083Z,10.57
2023-04-20T00:38:23.272Z,6.75
2023-04-20T00:43:28.411Z,6.88
2023-04-20T00:48:32.573Z,11.50
2023-04-20T00:53:38.068Z,9.40
2023-04-20T00:58:43.115Z,11.65
2023-04-20T01:03:47.539Z,8.37
2023-04-20T01:08:53.412Z,7.25
2023-04-20T01:19:01.694Z,6.28
2023-04-20T01:24:07.886Z,7.47
2023-04-20T01:29:11.713Z,6.88
2023-04-20T01:34:17.675Z,7.22
2023-04-20T01:39:23.883Z,7.22
2023-04-20T01:44:27.900Z,7.88
2023-04-20T01:49:32.004Z,7.57
2023-04-20T01:54:37.999Z,7.28
2023-04-20T02:04:45.485Z,7.30
2023-04-20T02:09:50.652Z,6.65
2023-04-20T02:14:54.462Z,6.87
2023-04-20T02:19:58.446Z,6.70
2023-04-20T02:25:04.889Z,6.35
2023-04-20T02:30:10.278Z,6.28
2023-04-20T02:35:14.103Z,6.25
2023-04-20T02:40:21.336Z,6.40
2023-04-20T02:45:25.202Z,6.13
2023-04-20T02:50:29.065Z,5.53
2023-04-20T02:55:57.508Z,6.38
2023-04-20T03:01:11.885Z,6.75
2023-04-20T03:06:16.484Z,5.72
2023-04-20T03:11:26.930Z,5.95
2023-04-20T03:16:31.824Z,6.15
2023-04-20T03:21:35.851Z,6.80
2023-04-20T03:26:41.528Z,6.75
2023-04-20T03:31:54.233Z,7.07
2023-04-20T03:36:58.963Z,7.00
2023-04-20T03:42:04.380Z,6.80
2023-04-20T03:47:09.459Z,7.18
2023-04-20T03:52:13.799Z,7.88
2023-04-20T03:57:19.704Z,7.45
2023-04-20T04:02:24.046Z,7.32
2023-04-20T04:07:29.713Z,7.05
2023-04-20T04:12:35.062Z,7.78
2023-04-20T04:17:39.604Z,7.68
2023-04-20T04:22:43.911Z,6.45
2023-04-20T04:33:22.063Z,7.25
2023-04-20T04:38:30.305Z,7.13
2023-04-20T04:43:39.974Z,6.85
2023-04-20T04:48:57.251Z,7.30
2023-04-20T04:54:04.885Z,8.10
2023-04-20T04:59:12.698Z,7.43
2023-04-20T05:04:19.861Z,7.38
2023-04-20T05:09:26.071Z,7.57
2023-04-20T05:14:33.579Z,8.40
2023-04-20T05:19:37.595Z,8.48
2023-04-20T05:24:42.372Z,8.73
2023-04-20T05:29:47.929Z,7.70
2023-04-20T05:34:51.951Z,8.88
2023-04-20T05:39:56.151Z,9.93
2023-04-20T05:45:01.677Z,9.70
2023-04-20T05:50:06.836Z,8.57
2023-04-20T05:55:11.312Z,9.13
2023-04-20T06:00:17.922Z,9.00
2023-04-20T06:05:22.215Z,8.00
2023-04-20T06:10:26.304Z,8.05
2023-04-20T06:15:31.815Z,7.40
2023-04-20T06:20:35.777Z,7.78
2023-04-20T06:25:39.851Z,8.57
2023-04-20T06:30:45.280Z,9.15
2023-04-20T06:35:51.551Z,6.95
2023-04-20T06:40:57.551Z,8.07
2023-04-20T06:46:02.815Z,8.82
2023-04-20T06:51:06.853Z,8.98
2023-04-20T06:56:11.520Z,8.50
2023-04-20T07:01:16.979Z,8.30
2023-04-20T07:06:20.969Z,7.65
2023-04-20T07:11:25.626Z,8.55
2023-04-20T07:16:31.096Z,7.13
2023-04-20T07:26:40.170Z,8.43
2023-04-20T07:31:45.612Z,6.60
2023-04-20T07:36:49.669Z,8.55
2023-04-20T07:41:54.146Z,9.43
2023-04-20T07:46:59.547Z,6.97
2023-04-20T07:52:14.958Z,7.45
2023-04-20T07:57:19.506Z,7.85
2023-04-20T08:02:24.884Z,8.05
2023-04-20T08:12:32.724Z,7.88
2023-04-20T08:17:39.708Z,7.38
2023-04-20T08:22:43.563Z,6.57
2023-04-20T08:27:47.617Z,7.05
2023-04-20T08:32:52.870Z,7.00
2023-04-20T08:37:56.814Z,7.60
2023-04-20T08:43:00.802Z,7.30
2023-04-20T08:48:09.139Z,6.53
2023-04-20T08:53:14.220Z,6.75
2023-04-20T08:58:19.170Z,6.75
2023-04-20T09:03:35.378Z,7.13
2023-04-20T09:08:40.941Z,5.80
2023-04-20T09:13:45.064Z,6.20
2023-04-20T09:18:55.791Z,6.63
2023-04-20T09:24:01.332Z,5.97
2023-04-20T09:29:06.210Z,6.05
2023-04-20T09:34:11.506Z,5.68
2023-04-20T09:39:17.522Z,6.00
2023-04-20T09:44:21.603Z,5.22
2023-04-20T09:49:27.331Z,4.95
2023-04-20T09:54:31.806Z,4.40
2023-04-20T09:59:36.243Z,5.80
2023-04-20T10:04:53.897Z,3.80
2023-04-20T10:10:06.429Z,3.85
2023-04-20T10:15:12.265Z,4.70
2023-04-20T10:25:28.647Z,3.53
2023-04-20T10:30:34.793Z,3.40
2023-04-20T10:35:51.415Z,3.17
2023-04-20T10:40:55.685Z,3.10
2023-04-20T10:45:59.591Z,3.17
2023-04-20T10:51:36.840Z,2.78
2023-04-20T10:56:42.318Z,2.70
2023-04-20T11:01:48.329Z,3.95
2023-04-20T11:06:53.656Z,3.20
2023-04-20T11:12:02.101Z,3.35
2023-04-20T11:17:07.270Z,3.13
2023-04-20T11:22:22.994Z,3.40
2023-04-20T11:27:27.389Z,3.55
2023-04-20T11:32:32.456Z,3.40
2023-04-20T11:37:47.995Z,2.78
2023-04-20T11:42:52.090Z,3.13
2023-04-20T11:47:56.573Z,3.67
2023-04-20T11:53:03.807Z,2.87
2023-04-20T11:58:08.236Z,3.38
2023-04-20T12:03:12.310Z,2.97
2023-04-20T12:08:18.140Z,3.80
2023-04-20T12:13:22.058Z,3.50
2023-04-20T12:18:26.109Z,2.80
2023-04-20T12:23:31.574Z,2.85
2023-04-20T12:28:35.548Z,3.55
2023-04-20T12:33:39.666Z,2.97
2023-04-20T12:38:44.933Z,3.10
2023-04-20T12:43:48.859Z,2.65
2023-04-20T12:48:52.909Z,2.85
2023-04-20T12:53:58.232Z,3.58
2023-04-20T12:59:02.184Z,2.85
2023-04-20T13:04:06.505Z,2.95
2023-04-20T13:09:12.106Z,3.30
2023-04-20T13:14:16.043Z,3.00
2023-04-20T13:19:20.094Z,3.10
2023-04-20T13:24:25.766Z,3.35
2023-04-20T13:29:29.763Z,3.45
2023-04-20T13:34:33.728Z,3.20
2023-04-20T13:39:38.984Z,2.88
2023-04-20T13:44:43.255Z,2.80
2023-04-20T13:49:47.251Z,3.33
2023-04-20T13:54:52.559Z,3.13
2023-04-20T13:59:56.413Z,3.22
2023-04-20T14:05:00.398Z,3.10
2023-04-20T14:10:06.739Z,2.80
2023-04-20T14:15:11.804Z,3.78
2023-04-20T14:20:15.779Z,2.97
2023-04-20T14:25:21.448Z,3.00
2023-04-20T14:30:25.664Z,3.28
2023-04-20T14:35:29.814Z,3.33
2023-04-20T14:40:35.203Z,3.75
2023-04-20T14:45:41.573Z,3.33
2023-04-20T14:50:45.731Z,4.25
2023-04-20T14:55:51.277Z,3.83
2023-04-20T15:06:01.860Z,3.55
2023-04-20T15:11:07.296Z,3.78
2023-04-20T15:16:11.703Z,3.88
2023-04-20T15:21:15.774Z,3.85
2023-04-20T15:26:21.216Z,3.90
2023-04-20T15:36:29.305Z,4.40
2023-04-20T15:41:34.768Z,4.40
2023-04-20T15:46:39.431Z,4.45
2023-04-20T15:51:44.451Z,6.23
2023-04-20T15:56:49.866Z,4.63
2023-04-20T16:01:54.350Z,4.32
2023-04-20T16:06:58.387Z,5.57
2023-04-20T16:12:03.887Z,5.78
2023-04-20T16:22:12.426Z,6.60
2023-04-20T16:27:18.982Z,5.27
2023-04-20T16:32:23.865Z,5.53
2023-04-20T16:37:28.085Z,4.73
2023-04-20T16:42:34.367Z,4.90
2023-04-20T16:47:38.743Z,4.78
2023-04-20T16:52:43.141Z,6.20
2023-04-20T16:57:48.723Z,5.38
2023-04-20T17:02:53.240Z,5.60
2023-04-20T17:07:57.510Z,5.78
2023-04-20T17:13:03.101Z,7.03
2023-04-20T17:23:12.485Z,6.88
2023-04-20T17:28:17.962Z,6.80
2023-04-20T17:33:21.963Z,6.78
2023-04-20T17:38:26.101Z,8.00
2023-04-20T17:43:31.664Z,7.43
2023-04-20T17:48:35.647Z,7.82
2023-04-20T17:53:39.575Z,7.38
2023-04-20T17:58:47.972Z,6.20
2023-04-20T18:03:52.194Z,6.65
2023-04-20T18:08:56.443Z,6.13
2023-04-20T18:14:01.804Z,5.82
2023-04-20T18:19:05.959Z,7.03
2023-04-20T18:24:10.012Z,7.10
2023-04-20T18:29:15.405Z,7.28
2023-04-20T18:34:19.625Z,8.13
2023-04-20T18:39:25.114Z,9.43
2023-04-20T18:44:30.728Z,11.75
2023-04-20T18:54:41.469Z,12.32
2023-04-20T18:59:46.889Z,9.52
2023-04-20T19:04:51.245Z,8.63
2023-04-20T19:09:55.199Z,8.85
2023-04-20T19:15:00.788Z,9.45
2023-04-20T19:20:05.422Z,8.85
2023-04-20T19:25:09.792Z,7.93
2023-04-20T19:30:15.601Z,8.88
2023-04-20T19:35:19.638Z,9.40
2023-04-20T19:40:24.787Z,9.98
2023-04-20T19:45:30.209Z,8.98
2023-04-20T19:50:34.431Z,10.32
2023-04-20T19:55:57.019Z,12.10
2023-04-20T20:01:02.280Z,9.98
2023-04-20T20:06:06.968Z,13.73
2023-04-20T20:11:11.016Z,17.55
2023-04-20T20:16:17.109Z,16.92
2023-04-20T20:21:21.059Z,18.33
2023-04-20T20:26:25.111Z,17.27
2023-04-20T20:31:30.654Z,16.08
2023-04-20T20:36:35.259Z,14.43
2023-04-20T20:41:42.816Z,12.13
2023-04-20T20:46:48.234Z,14.65
2023-04-20T20:51:52.469Z,14.38
2023-04-20T20:56:57.703Z,13.32
2023-04-20T21:02:03.677Z,11.07
2023-04-20T21:07:07.966Z,8.70
2023-04-20T21:12:11.953Z,7.22
2023-04-20T21:17:17.226Z,6.57
2023-04-20T21:22:22.677Z,6.75
2023-04-20T21:27:27.940Z,6.70
2023-04-20T21:32:33.384Z,7.10
2023-04-20T21:37:37.537Z,6.95
2023-04-20T21:42:41.751Z,6.72
2023-04-20T21:47:47.236Z,7.07
2023-04-20T21:52:51.303Z,7.60
2023-04-20T21:57:55.960Z,6.18
2023-04-20T22:03:01.818Z,6.97
2023-04-20T22:08:06.774Z,9.52
2023-04-20T22:13:10.973Z,7.15
2023-04-20T22:18:17.555Z,6.88
2023-04-20T22:23:21.733Z,7.60
2023-04-20T22:28:26.093Z,7.28
2023-04-20T22:33:31.737Z,7.20
2023-04-20T22:38:36.621Z,7.40
2023-04-20T22:43:41.003Z,8.52
2023-04-20T22:48:48.491Z,7.97
2023-04-20T22:53:52.761Z,7.32
2023-04-20T22:58:56.789Z,7.13
2023-04-20T23:04:02.784Z,9.07
2023-04-20T23:14:12.414Z,7.47
2023-04-20T23:19:18.400Z,8.35
2023-04-20T23:24:22.679Z,8.07
2023-04-20T23:29:26.773Z,7.82
2023-04-20T23:34:32.425Z,6.97
2023-04-20T23:39:38.270Z,7.38
2023-04-20T23:49:47.483Z,7.72
2023-04-20T23:54:51.781Z,5.63
2023-04-20T23:59:55.779Z,5.00
